sensor_id;sensor_type;location;lat;lon;timestamp;P1;P2;P0
44350;PMS5003;62766;62.622;17.912;2023-04-25T00:00:00;5;5;
44350;PMS5003;62766;62.622;17.912;2023-04-25T00:02:28;5;5;
44350;PMS5003;62766;62.622;17.912;2023-04-25T00:04:57;5;5;
44350;PMS5003;62766;62.622;17.912;2023-04-25T00:07:25;9;8;
44350;PMS5003;62766;62.622;17.912;2023-04-25T00:09:53;8;8;
44350;PMS5003;62766;62.622;17.912;2023-04-25T00:12:22;10;7;
44350;PMS5003;62766;62.622;17.912;2023-04-25T00:14:50;5;5;
44350;PMS5003;62766;62.622;17.912;2023-04-25T00:17:19;7;7;
44350;PMS5003;62766;62.622;17.912;2023-04-25T00:19:47;7;7;
44350;PMS5003;62766;62.622;17.912;2023-04-25T00:22:16;7;7;
44350;PMS5003;62766;62.622;17.912;2023-04-25T00:24:45;9;7;
44350;PMS5003;62766;62.622;17.912;2023-04-25T00:27:14;7;7;
44350;PMS5003;62766;62.622;17.912;2023-04-25T00:29:42;6;6;
44350;PMS5003;62766;62.622;17.912;2023-04-25T00:32:11;8;8;
44350;PMS5003;62766;62.622;17.912;2023-04-25T00:34:39;8;8;
44350;PMS5003;62766;62.622;17.912;2023-04-25T00:37:09;9;9;
44350;PMS5003;62766;62.622;17.912;2023-04-25T00:39:38;8;8;
44350;PMS5003;62766;62.622;17.912;2023-04-25T00:42:06;7;7;
44350;PMS5003;62766;62.622;17.912;2023-04-25T00:44:36;6;6;
44350;PMS5003;62766;62.622;17.912;2023-04-25T00:47:05;8;8;
44350;PMS5003;62766;62.622;17.912;2023-04-25T00:49:35;7;7;
44350;PMS5003;62766;62.622;17.912;2023-04-25T00:52:04;10;8;
44350;PMS5003;62766;62.622;17.912;2023-04-25T00:54:32;9;8;
44350;PMS5003;62766;62.622;17.912;2023-04-25T00:57:01;8;8;
44350;PMS5003;62766;62.622;17.912;2023-04-25T00:59:29;9;8;
44350;PMS5003;62766;62.622;17.912;2023-04-25T01:01:58;13;13;
44350;PMS5003;62766;62.622;17.912;2023-04-25T01:04:27;12;9;
44350;PMS5003;62766;62.622;17.912;2023-04-25T01:06:55;9;8;
44350;PMS5003;62766;62.622;17.912;2023-04-25T01:09:23;10;10;
44350;PMS5003;62766;62.622;17.912;2023-04-25T01:11:52;9;8;
44350;PMS5003;62766;62.622;17.912;2023-04-25T01:14:21;9;9;
44350;PMS5003;62766;62.622;17.912;2023-04-25T01:16:49;9;9;
44350;PMS5003;62766;62.622;17.912;2023-04-25T01:19:18;8;8;
44350;PMS5003;62766;62.622;17.912;2023-04-25T01:21:48;6;6;
44350;PMS5003;62766;62.622;17.912;2023-04-25T01:24:18;8;8;
44350;PMS5003;62766;62.622;17.912;2023-04-25T01:26:47;8;8;
44350;PMS5003;62766;62.622;17.912;2023-04-25T01:29:17;9;9;
44350;PMS5003;62766;62.622;17.912;2023-04-25T01:31:45;8;7;
44350;PMS5003;62766;62.622;17.912;2023-04-25T01:34:14;8;8;
44350;PMS5003;62766;62.622;17.912;2023-04-25T01:36:42;6;6;
44350;PMS5003;62766;62.622;17.912;2023-04-25T01:39:11;8;7;
44350;PMS5003;62766;62.622;17.912;2023-04-25T01:41:40;10;8;
44350;PMS5003;62766;62.622;17.912;2023-04-25T01:44:09;11;9;
44350;PMS5003;62766;62.622;17.912;2023-04-25T01:46:38;7;7;
44350;PMS5003;62766;62.622;17.912;2023-04-25T01:49:07;10;10;
44350;PMS5003;62766;62.622;17.912;2023-04-25T01:51:35;8;8;
44350;PMS5003;62766;62.622;17.912;2023-04-25T01:54:03;8;8;
44350;PMS5003;62766;62.622;17.912;2023-04-25T01:56:32;10;10;
44350;PMS5003;62766;62.622;17.912;2023-04-25T01:59:00;9;9;
44350;PMS5003;62766;62.622;17.912;2023-04-25T02:01:29;11;11;
44350;PMS5003;62766;62.622;17.912;2023-04-25T02:03:57;9;9;
44350;PMS5003;62766;62.622;17.912;2023-04-25T02:06:26;10;9;
44350;PMS5003;62766;62.622;17.912;2023-04-25T02:08:55;16;16;
44350;PMS5003;62766;62.622;17.912;2023-04-25T02:11:23;9;9;
44350;PMS5003;62766;62.622;17.912;2023-04-25T02:13:52;10;10;
44350;PMS5003;62766;62.622;17.912;2023-04-25T02:16:21;10;10;
44350;PMS5003;62766;62.622;17.912;2023-04-25T02:18:50;8;8;
44350;PMS5003;62766;62.622;17.912;2023-04-25T02:21:19;13;10;
44350;PMS5003;62766;62.622;17.912;2023-04-25T02:23:48;8;8;
44350;PMS5003;62766;62.622;17.912;2023-04-25T02:26:16;7;7;
44350;PMS5003;62766;62.622;17.912;2023-04-25T02:28:45;9;9;
44350;PMS5003;62766;62.622;17.912;2023-04-25T02:31:14;9;9;
44350;PMS5003;62766;62.622;17.912;2023-04-25T02:33:42;8;8;
44350;PMS5003;62766;62.622;17.912;2023-04-25T02:36:11;9;9;
44350;PMS5003;62766;62.622;17.912;2023-04-25T02:38:40;8;8;
44350;PMS5003;62766;62.622;17.912;2023-04-25T02:41:08;9;9;
44350;PMS5003;62766;62.622;17.912;2023-04-25T02:43:37;9;9;
44350;PMS5003;62766;62.622;17.912;2023-04-25T02:46:05;10;9;
44350;PMS5003;62766;62.622;17.912;2023-04-25T02:48:34;9;9;
44350;PMS5003;62766;62.622;17.912;2023-04-25T02:51:03;16;15;
44350;PMS5003;62766;62.622;17.912;2023-04-25T02:53:32;10;10;
44350;PMS5003;62766;62.622;17.912;2023-04-25T02:56:00;9;9;
44350;PMS5003;62766;62.622;17.912;2023-04-25T02:58:29;9;9;
44350;PMS5003;62766;62.622;17.912;2023-04-25T03:00:57;10;10;
44350;PMS5003;62766;62.622;17.912;2023-04-25T03:03:26;10;10;
44350;PMS5003;62766;62.622;17.912;2023-04-25T03:05:55;11;11;
44350;PMS5003;62766;62.622;17.912;2023-04-25T03:08:22;10;9;
44350;PMS5003;62766;62.622;17.912;2023-04-25T03:10:51;11;11;
44350;PMS5003;62766;62.622;17.912;2023-04-25T03:13:20;10;10;
44350;PMS5003;62766;62.622;17.912;2023-04-25T03:15:48;9;9;
44350;PMS5003;62766;62.622;17.912;2023-04-25T03:18:16;13;12;
44350;PMS5003;62766;62.622;17.912;2023-04-25T03:20:44;10;10;
44350;PMS5003;62766;62.622;17.912;2023-04-25T03:23:13;10;10;
44350;PMS5003;62766;62.622;17.912;2023-04-25T03:25:41;13;11;
44350;PMS5003;62766;62.622;17.912;2023-04-25T03:28:09;11;11;
44350;PMS5003;62766;62.622;17.912;2023-04-25T03:30:38;12;11;
44350;PMS5003;62766;62.622;17.912;2023-04-25T03:33:06;14;12;
44350;PMS5003;62766;62.622;17.912;2023-04-25T03:35:35;10;8;
44350;PMS5003;62766;62.622;17.912;2023-04-25T03:38:03;11;10;
44350;PMS5003;62766;62.622;17.912;2023-04-25T03:40:32;12;11;
44350;PMS5003;62766;62.622;17.912;2023-04-25T03:43:00;13;13;
44350;PMS5003;62766;62.622;17.912;2023-04-25T03:45:28;12;11;
44350;PMS5003;62766;62.622;17.912;2023-04-25T03:47:57;10;10;
44350;PMS5003;62766;62.622;17.912;2023-04-25T03:50:25;11;11;
44350;PMS5003;62766;62.622;17.912;2023-04-25T03:52:54;14;12;
44350;PMS5003;62766;62.622;17.912;2023-04-25T03:55:22;14;14;
44350;PMS5003;62766;62.622;17.912;2023-04-25T03:57:50;9;9;
44350;PMS5003;62766;62.622;17.912;2023-04-25T04:03:20;9;9;
44350;PMS5003;62766;62.622;17.912;2023-04-25T04:05:50;8;8;
44350;PMS5003;62766;62.622;17.912;2023-04-25T04:08:19;11;11;
44350;PMS5003;62766;62.622;17.912;2023-04-25T04:10:49;9;9;
44350;PMS5003;62766;62.622;17.912;2023-04-25T04:13:18;9;8;
44350;PMS5003;62766;62.622;17.912;2023-04-25T04:15:46;12;8;
44350;PMS5003;62766;62.622;17.912;2023-04-25T04:18:15;15;14;
44350;PMS5003;62766;62.622;17.912;2023-04-25T04:20:44;9;9;
44350;PMS5003;62766;62.622;17.912;2023-04-25T04:23:12;9;9;
44350;PMS5003;62766;62.622;17.912;2023-04-25T04:25:41;12;12;
44350;PMS5003;62766;62.622;17.912;2023-04-25T04:28:10;13;10;
44350;PMS5003;62766;62.622;17.912;2023-04-25T04:30:38;12;12;
44350;PMS5003;62766;62.622;17.912;2023-04-25T04:33:07;12;12;
44350;PMS5003;62766;62.622;17.912;2023-04-25T04:35:35;13;13;
44350;PMS5003;62766;62.622;17.912;2023-04-25T04:38:04;11;11;
44350;PMS5003;62766;62.622;17.912;2023-04-25T04:40:32;11;11;
44350;PMS5003;62766;62.622;17.912;2023-04-25T04:43:01;11;11;
44350;PMS5003;62766;62.622;17.912;2023-04-25T04:45:29;9;9;
44350;PMS5003;62766;62.622;17.912;2023-04-25T04:47:58;9;9;
44350;PMS5003;62766;62.622;17.912;2023-04-25T04:50:26;8;8;
44350;PMS5003;62766;62.622;17.912;2023-04-25T04:52:55;8;8;
44350;PMS5003;62766;62.622;17.912;2023-04-25T04:55:24;12;12;
44350;PMS5003;62766;62.622;17.912;2023-04-25T04:57:52;10;10;
44350;PMS5003;62766;62.622;17.912;2023-04-25T05:00:21;10;9;
44350;PMS5003;62766;62.622;17.912;2023-04-25T05:02:49;12;12;
44350;PMS5003;62766;62.622;17.912;2023-04-25T05:05:18;9;9;
44350;PMS5003;62766;62.622;17.912;2023-04-25T05:07:46;9;9;
44350;PMS5003;62766;62.622;17.912;2023-04-25T05:10:15;10;9;
44350;PMS5003;62766;62.622;17.912;2023-04-25T05:12:43;9;9;
44350;PMS5003;62766;62.622;17.912;2023-04-25T05:15:12;8;8;
44350;PMS5003;62766;62.622;17.912;2023-04-25T05:17:40;12;12;
44350;PMS5003;62766;62.622;17.912;2023-04-25T05:20:09;13;11;
44350;PMS5003;62766;62.622;17.912;2023-04-25T05:22:37;8;8;
44350;PMS5003;62766;62.622;17.912;2023-04-25T05:25:06;11;11;
44350;PMS5003;62766;62.622;17.912;2023-04-25T05:27:34;9;9;
44350;PMS5003;62766;62.622;17.912;2023-04-25T05:30:03;7;7;
44350;PMS5003;62766;62.622;17.912;2023-04-25T05:32:33;9;9;
44350;PMS5003;62766;62.622;17.912;2023-04-25T05:35:01;12;11;
44350;PMS5003;62766;62.622;17.912;2023-04-25T05:37:30;15;12;
44350;PMS5003;62766;62.622;17.912;2023-04-25T05:39:59;14;11;
44350;PMS5003;62766;62.622;17.912;2023-04-25T05:42:27;12;11;
44350;PMS5003;62766;62.622;17.912;2023-04-25T05:44:56;9;9;
44350;PMS5003;62766;62.622;17.912;2023-04-25T05:47:25;11;11;
44350;PMS5003;62766;62.622;17.912;2023-04-25T05:49:54;13;12;
44350;PMS5003;62766;62.622;17.912;2023-04-25T05:52:23;12;12;
44350;PMS5003;62766;62.622;17.912;2023-04-25T05:54:52;9;9;
44350;PMS5003;62766;62.622;17.912;2023-04-25T05:59:49;9;9;
44350;PMS5003;62766;62.622;17.912;2023-04-25T06:02:18;11;9;
44350;PMS5003;62766;62.622;17.912;2023-04-25T06:04:46;11;11;
44350;PMS5003;62766;62.622;17.912;2023-04-25T06:07:15;12;9;
44350;PMS5003;62766;62.622;17.912;2023-04-25T06:09:43;14;9;
44350;PMS5003;62766;62.622;17.912;2023-04-25T06:12:12;7;7;
44350;PMS5003;62766;62.622;17.912;2023-04-25T06:14:41;8;8;
44350;PMS5003;62766;62.622;17.912;2023-04-25T06:17:09;11;9;
44350;PMS5003;62766;62.622;17.912;2023-04-25T06:19:38;8;8;
44350;PMS5003;62766;62.622;17.912;2023-04-25T06:22:07;16;16;
44350;PMS5003;62766;62.622;17.912;2023-04-25T06:24:35;11;11;
44350;PMS5003;62766;62.622;17.912;2023-04-25T06:27:04;6;6;
44350;PMS5003;62766;62.622;17.912;2023-04-25T06:29:32;8;8;
44350;PMS5003;62766;62.622;17.912;2023-04-25T06:32:01;8;8;
44350;PMS5003;62766;62.622;17.912;2023-04-25T06:34:29;11;9;
44350;PMS5003;62766;62.622;17.912;2023-04-25T06:36:58;7;7;
44350;PMS5003;62766;62.622;17.912;2023-04-25T06:39:26;7;7;
44350;PMS5003;62766;62.622;17.912;2023-04-25T06:41:54;9;8;
44350;PMS5003;62766;62.622;17.912;2023-04-25T06:44:23;7;7;
44350;PMS5003;62766;62.622;17.912;2023-04-25T06:46:52;7;7;
44350;PMS5003;62766;62.622;17.912;2023-04-25T06:49:21;9;9;
44350;PMS5003;62766;62.622;17.912;2023-04-25T06:51:51;11;9;
44350;PMS5003;62766;62.622;17.912;2023-04-25T06:54:20;7;7;
44350;PMS5003;62766;62.622;17.912;2023-04-25T06:56:50;7;7;
44350;PMS5003;62766;62.622;17.912;2023-04-25T06:59:19;6;6;
44350;PMS5003;62766;62.622;17.912;2023-04-25T07:01:49;6;6;
44350;PMS5003;62766;62.622;17.912;2023-04-25T07:04:17;5;5;
44350;PMS5003;62766;62.622;17.912;2023-04-25T07:06:46;6;6;
44350;PMS5003;62766;62.622;17.912;2023-04-25T07:09:15;11;7;
44350;PMS5003;62766;62.622;17.912;2023-04-25T07:11:43;5;5;
44350;PMS5003;62766;62.622;17.912;2023-04-25T07:14:12;7;6;
44350;PMS5003;62766;62.622;17.912;2023-04-25T07:16:40;7;5;
44350;PMS5003;62766;62.622;17.912;2023-04-25T07:19:09;6;6;
44350;PMS5003;62766;62.622;17.912;2023-04-25T07:21:36;6;6;
44350;PMS5003;62766;62.622;17.912;2023-04-25T07:24:05;7;6;
44350;PMS5003;62766;62.622;17.912;2023-04-25T07:26:33;6;6;
44350;PMS5003;62766;62.622;17.912;2023-04-25T07:29:02;6;6;
44350;PMS5003;62766;62.622;17.912;2023-04-25T07:31:30;6;6;
44350;PMS5003;62766;62.622;17.912;2023-04-25T07:33:59;6;4;
44350;PMS5003;62766;62.622;17.912;2023-04-25T07:36:27;6;6;
44350;PMS5003;62766;62.622;17.912;2023-04-25T07:38:56;5;5;
44350;PMS5003;62766;62.622;17.912;2023-04-25T07:41:24;6;6;
44350;PMS5003;62766;62.622;17.912;2023-04-25T07:43:53;7;7;
44350;PMS5003;62766;62.622;17.912;2023-04-25T07:46:21;8;7;
44350;PMS5003;62766;62.622;17.912;2023-04-25T07:48:50;6;6;
44350;PMS5003;62766;62.622;17.912;2023-04-25T07:51:18;8;6;
44350;PMS5003;62766;62.622;17.912;2023-04-25T07:53:47;6;6;
44350;PMS5003;62766;62.622;17.912;2023-04-25T07:56:15;6;6;
44350;PMS5003;62766;62.622;17.912;2023-04-25T07:58:43;5;5;
44350;PMS5003;62766;62.622;17.912;2023-04-25T08:01:12;5;5;
44350;PMS5003;62766;62.622;17.912;2023-04-25T08:03:40;5;5;
44350;PMS5003;62766;62.622;17.912;2023-04-25T08:06:09;4;4;
44350;PMS5003;62766;62.622;17.912;2023-04-25T08:08:37;3;3;
44350;PMS5003;62766;62.622;17.912;2023-04-25T08:11:06;6;6;
44350;PMS5003;62766;62.622;17.912;2023-04-25T08:13:35;5;5;
44350;PMS5003;62766;62.622;17.912;2023-04-25T08:16:03;5;5;
44350;PMS5003;62766;62.622;17.912;2023-04-25T08:18:32;5;5;
44350;PMS5003;62766;62.622;17.912;2023-04-25T08:21:00;4;4;
44350;PMS5003;62766;62.622;17.912;2023-04-25T08:23:29;5;5;
44350;PMS5003;62766;62.622;17.912;2023-04-25T08:25:57;7;5;
44350;PMS5003;62766;62.622;17.912;2023-04-25T08:28:26;5;5;
44350;PMS5003;62766;62.622;17.912;2023-04-25T08:30:54;3;3;
44350;PMS5003;62766;62.622;17.912;2023-04-25T08:33:23;5;5;
44350;PMS5003;62766;62.622;17.912;2023-04-25T08:35:51;3;3;
44350;PMS5003;62766;62.622;17.912;2023-04-25T08:38:20;5;3;
44350;PMS5003;62766;62.622;17.912;2023-04-25T08:40:50;5;3;
44350;PMS5003;62766;62.622;17.912;2023-04-25T08:43:19;3;3;
44350;PMS5003;62766;62.622;17.912;2023-04-25T08:45:48;5;5;
44350;PMS5003;62766;62.622;17.912;2023-04-25T08:48:17;4;4;
44350;PMS5003;62766;62.622;17.912;2023-04-25T08:50:48;8;8;
44350;PMS5003;62766;62.622;17.912;2023-04-25T08:53:20;2;2;
44350;PMS5003;62766;62.622;17.912;2023-04-25T08:55:54;3;3;
44350;PMS5003;62766;62.622;17.912;2023-04-25T08:58:24;3;3;
44350;PMS5003;62766;62.622;17.912;2023-04-25T09:00:52;3;3;
44350;PMS5003;62766;62.622;17.912;2023-04-25T09:03:21;3;3;
44350;PMS5003;62766;62.622;17.912;2023-04-25T09:05:49;3;3;
44350;PMS5003;62766;62.622;17.912;2023-04-25T09:08:20;4;4;
44350;PMS5003;62766;62.622;17.912;2023-04-25T09:10:49;3;3;
44350;PMS5003;62766;62.622;17.912;2023-04-25T09:13:24;2;2;
44350;PMS5003;62766;62.622;17.912;2023-04-25T09:15:54;3;3;
44350;PMS5003;62766;62.622;17.912;2023-04-25T09:18:24;2;2;
44350;PMS5003;62766;62.622;17.912;2023-04-25T09:20:54;3;3;
44350;PMS5003;62766;62.622;17.912;2023-04-25T09:23:24;1;1;
44350;PMS5003;62766;62.622;17.912;2023-04-25T09:25:53;1;1;
44350;PMS5003;62766;62.622;17.912;2023-04-25T09:28:22;1;1;
44350;PMS5003;62766;62.622;17.912;2023-04-25T09:30:54;2;2;
44350;PMS5003;62766;62.622;17.912;2023-04-25T09:33:27;1;1;
44350;PMS5003;62766;62.622;17.912;2023-04-25T09:36:01;2;1;
44350;PMS5003;62766;62.622;17.912;2023-04-25T09:38:31;1;1;
44350;PMS5003;62766;62.622;17.912;2023-04-25T09:41:01;3;1;
44350;PMS5003;62766;62.622;17.912;2023-04-25T09:43:29;1;1;
44350;PMS5003;62766;62.622;17.912;2023-04-25T09:45:58;1;1;
44350;PMS5003;62766;62.622;17.912;2023-04-25T09:48:27;1;1;
44350;PMS5003;62766;62.622;17.912;2023-04-25T09:51:06;2;2;
44350;PMS5003;62766;62.622;17.912;2023-04-25T09:53:36;2;2;
44350;PMS5003;62766;62.622;17.912;2023-04-25T09:56:06;1;1;
44350;PMS5003;62766;62.622;17.912;2023-04-25T09:58:36;2;2;
44350;PMS5003;62766;62.622;17.912;2023-04-25T10:03:29;2;2;
44350;PMS5003;62766;62.622;17.912;2023-04-25T10:05:59;1;1;
44350;PMS5003;62766;62.622;17.912;2023-04-25T10:08:31;2;2;
44350;PMS5003;62766;62.622;17.912;2023-04-25T10:11:01;1;1;
44350;PMS5003;62766;62.622;17.912;2023-04-25T10:13:31;3;3;
44350;PMS5003;62766;62.622;17.912;2023-04-25T10:16:02;2;2;
44350;PMS5003;62766;62.622;17.912;2023-04-25T10:18:31;1;1;
44350;PMS5003;62766;62.622;17.912;2023-04-25T10:21:02;5;2;
44350;PMS5003;62766;62.622;17.912;2023-04-25T10:23:33;1;1;
44350;PMS5003;62766;62.622;17.912;2023-04-25T10:26:03;1;1;
44350;PMS5003;62766;62.622;17.912;2023-04-25T10:28:39;3;3;
44350;PMS5003;62766;62.622;17.912;2023-04-25T10:31:23;1;1;
44350;PMS5003;62766;62.622;17.912;2023-04-25T10:33:51;2;2;
44350;PMS5003;62766;62.622;17.912;2023-04-25T10:36:22;1;1;
44350;PMS5003;62766;62.622;17.912;2023-04-25T10:38:52;1;1;
44350;PMS5003;62766;62.622;17.912;2023-04-25T10:41:22;2;2;
44350;PMS5003;62766;62.622;17.912;2023-04-25T10:43:58;1;1;
44350;PMS5003;62766;62.622;17.912;2023-04-25T10:46:28;1;1;
44350;PMS5003;62766;62.622;17.912;2023-04-25T10:48:57;1;1;
44350;PMS5003;62766;62.622;17.912;2023-04-25T10:51:28;2;2;
44350;PMS5003;62766;62.622;17.912;2023-04-25T10:53:58;1;1;
44350;PMS5003;62766;62.622;17.912;2023-04-25T10:56:28;3;2;
44350;PMS5003;62766;62.622;17.912;2023-04-25T10:59:05;2;2;
44350;PMS5003;62766;62.622;17.912;2023-04-25T11:01:37;2;2;
44350;PMS5003;62766;62.622;17.912;2023-04-25T11:04:19;3;3;
44350;PMS5003;62766;62.622;17.912;2023-04-25T11:06:58;4;2;
44350;PMS5003;62766;62.622;17.912;2023-04-25T11:09:33;5;3;
44350;PMS5003;62766;62.622;17.912;2023-04-25T11:12:04;1;1;
44350;PMS5003;62766;62.622;17.912;2023-04-25T11:14:32;1;1;
44350;PMS5003;62766;62.622;17.912;2023-04-25T11:17:00;2;2;
44350;PMS5003;62766;62.622;17.912;2023-04-25T11:19:29;5;2;
44350;PMS5003;62766;62.622;17.912;2023-04-25T11:21:57;1;1;
44350;PMS5003;62766;62.622;17.912;2023-04-25T11:24:27;1;1;
44350;PMS5003;62766;62.622;17.912;2023-04-25T11:26:56;2;2;
44350;PMS5003;62766;62.622;17.912;2023-04-25T11:29:26;3;3;
44350;PMS5003;62766;62.622;17.912;2023-04-25T11:31:55;2;2;
44350;PMS5003;62766;62.622;17.912;2023-04-25T11:34:25;2;1;
44350;PMS5003;62766;62.622;17.912;2023-04-25T11:36:53;1;1;
44350;PMS5003;62766;62.622;17.912;2023-04-25T11:39:23;2;2;
44350;PMS5003;62766;62.622;17.912;2023-04-25T11:41:52;4;2;
44350;PMS5003;62766;62.622;17.912;2023-04-25T11:44:20;1;1;
44350;PMS5003;62766;62.622;17.912;2023-04-25T11:46:50;2;2;
44350;PMS5003;62766;62.622;17.912;2023-04-25T11:49:19;0;0;
44350;PMS5003;62766;62.622;17.912;2023-04-25T11:51:48;2;2;
44350;PMS5003;62766;62.622;17.912;2023-04-25T11:54:16;1;1;
44350;PMS5003;62766;62.622;17.912;2023-04-25T11:56:44;1;1;
44350;PMS5003;62766;62.622;17.912;2023-04-25T11:59:13;2;2;
44350;PMS5003;62766;62.622;17.912;2023-04-25T12:01:41;2;2;
44350;PMS5003;62766;62.622;17.912;2023-04-25T12:04:18;1;1;
44350;PMS5003;62766;62.622;17.912;2023-04-25T12:06:47;4;4;
44350;PMS5003;62766;62.622;17.912;2023-04-25T12:09:18;3;3;
44350;PMS5003;62766;62.622;17.912;2023-04-25T12:11:48;2;2;
44350;PMS5003;62766;62.622;17.912;2023-04-25T12:14:22;2;2;
44350;PMS5003;62766;62.622;17.912;2023-04-25T12:16:51;2;2;
44350;PMS5003;62766;62.622;17.912;2023-04-25T12:19:19;1;1;
44350;PMS5003;62766;62.622;17.912;2023-04-25T12:21:48;2;2;
44350;PMS5003;62766;62.622;17.912;2023-04-25T12:24:21;2;2;
44350;PMS5003;62766;62.622;17.912;2023-04-25T12:26:50;2;2;
44350;PMS5003;62766;62.622;17.912;2023-04-25T12:29:20;2;2;
44350;PMS5003;62766;62.622;17.912;2023-04-25T12:31:51;3;2;
44350;PMS5003;62766;62.622;17.912;2023-04-25T12:34:21;1;1;
44350;PMS5003;62766;62.622;17.912;2023-04-25T12:36:51;2;2;
44350;PMS5003;62766;62.622;17.912;2023-04-25T12:39:21;3;2;
44350;PMS5003;62766;62.622;17.912;2023-04-25T12:41:51;2;2;
44350;PMS5003;62766;62.622;17.912;2023-04-25T12:44:19;3;2;
44350;PMS5003;62766;62.622;17.912;2023-04-25T12:46:48;1;1;
44350;PMS5003;62766;62.622;17.912;2023-04-25T12:49:16;2;2;
44350;PMS5003;62766;62.622;17.912;2023-04-25T12:51:44;2;2;
44350;PMS5003;62766;62.622;17.912;2023-04-25T12:54:13;1;1;
44350;PMS5003;62766;62.622;17.912;2023-04-25T12:56:41;2;2;
44350;PMS5003;62766;62.622;17.912;2023-04-25T12:59:10;2;2;
44350;PMS5003;62766;62.622;17.912;2023-04-25T13:01:38;2;2;
44350;PMS5003;62766;62.622;17.912;2023-04-25T13:04:06;2;2;
44350;PMS5003;62766;62.622;17.912;2023-04-25T13:06:35;2;2;
44350;PMS5003;62766;62.622;17.912;2023-04-25T13:09:03;2;2;
44350;PMS5003;62766;62.622;17.912;2023-04-25T13:11:32;2;2;
44350;PMS5003;62766;62.622;17.912;2023-04-25T13:14:00;2;2;
44350;PMS5003;62766;62.622;17.912;2023-04-25T13:16:28;2;2;
44350;PMS5003;62766;62.622;17.912;2023-04-25T13:18:57;3;2;
44350;PMS5003;62766;62.622;17.912;2023-04-25T13:21:25;2;2;
44350;PMS5003;62766;62.622;17.912;2023-04-25T13:23:54;3;3;
44350;PMS5003;62766;62.622;17.912;2023-04-25T13:26:24;2;2;
44350;PMS5003;62766;62.622;17.912;2023-04-25T13:28:54;4;4;
44350;PMS5003;62766;62.622;17.912;2023-04-25T13:31:24;2;2;
44350;PMS5003;62766;62.622;17.912;2023-04-25T13:33:53;4;4;
44350;PMS5003;62766;62.622;17.912;2023-04-25T13:36:24;3;3;
44350;PMS5003;62766;62.622;17.912;2023-04-25T13:38:52;4;4;
44350;PMS5003;62766;62.622;17.912;2023-04-25T13:41:20;4;4;
44350;PMS5003;62766;62.622;17.912;2023-04-25T13:43:48;5;4;
44350;PMS5003;62766;62.622;17.912;2023-04-25T13:46:17;8;8;
44350;PMS5003;62766;62.622;17.912;2023-04-25T13:48:46;8;8;
44350;PMS5003;62766;62.622;17.912;2023-04-25T13:51:15;6;6;
44350;PMS5003;62766;62.622;17.912;2023-04-25T13:53:44;5;5;
44350;PMS5003;62766;62.622;17.912;2023-04-25T13:56:13;5;5;
44350;PMS5003;62766;62.622;17.912;2023-04-25T13:58:42;4;4;
44350;PMS5003;62766;62.622;17.912;2023-04-25T14:01:10;8;7;
44350;PMS5003;62766;62.622;17.912;2023-04-25T14:03:38;6;6;
44350;PMS5003;62766;62.622;17.912;2023-04-25T14:06:06;10;10;
44350;PMS5003;62766;62.622;17.912;2023-04-25T14:08:35;13;11;
44350;PMS5003;62766;62.622;17.912;2023-04-25T14:11:03;16;16;
44350;PMS5003;62766;62.622;17.912;2023-04-25T14:13:30;7;7;
44350;PMS5003;62766;62.622;17.912;2023-04-25T14:15:59;7;7;
44350;PMS5003;62766;62.622;17.912;2023-04-25T14:18:28;5;5;
44350;PMS5003;62766;62.622;17.912;2023-04-25T14:20:56;6;6;
44350;PMS5003;62766;62.622;17.912;2023-04-25T14:23:24;14;11;
44350;PMS5003;62766;62.622;17.912;2023-04-25T14:25:53;9;9;
44350;PMS5003;62766;62.622;17.912;2023-04-25T14:28:23;8;8;
44350;PMS5003;62766;62.622;17.912;2023-04-25T14:30:52;13;11;
44350;PMS5003;62766;62.622;17.912;2023-04-25T14:33:21;12;11;
44350;PMS5003;62766;62.622;17.912;2023-04-25T14:35:51;6;5;
44350;PMS5003;62766;62.622;17.912;2023-04-25T14:38:19;7;6;
44350;PMS5003;62766;62.622;17.912;2023-04-25T14:40:47;4;4;
44350;PMS5003;62766;62.622;17.912;2023-04-25T14:43:16;3;3;
44350;PMS5003;62766;62.622;17.912;2023-04-25T14:45:48;5;5;
44350;PMS5003;62766;62.622;17.912;2023-04-25T14:48:16;3;3;
44350;PMS5003;62766;62.622;17.912;2023-04-25T14:50:46;5;5;
44350;PMS5003;62766;62.622;17.912;2023-04-25T14:53:15;6;6;
44350;PMS5003;62766;62.622;17.912;2023-04-25T14:55:43;6;6;
44350;PMS5003;62766;62.622;17.912;2023-04-25T14:58:11;6;4;
44350;PMS5003;62766;62.622;17.912;2023-04-25T15:00:40;3;3;
44350;PMS5003;62766;62.622;17.912;2023-04-25T15:03:08;2;2;
44350;PMS5003;62766;62.622;17.912;2023-04-25T15:05:37;5;5;
44350;PMS5003;62766;62.622;17.912;2023-04-25T15:08:05;7;7;
44350;PMS5003;62766;62.622;17.912;2023-04-25T15:10:33;3;3;
44350;PMS5003;62766;62.622;17.912;2023-04-25T15:13:02;2;2;
44350;PMS5003;62766;62.622;17.912;2023-04-25T15:15:30;4;4;
44350;PMS5003;62766;62.622;17.912;2023-04-25T15:17:59;1;1;
44350;PMS5003;62766;62.622;17.912;2023-04-25T15:20:27;2;2;
44350;PMS5003;62766;62.622;17.912;2023-04-25T15:22:56;2;2;
44350;PMS5003;62766;62.622;17.912;2023-04-25T15:25:24;2;2;
44350;PMS5003;62766;62.622;17.912;2023-04-25T15:27:52;3;3;
44350;PMS5003;62766;62.622;17.912;2023-04-25T15:30:23;2;2;
44350;PMS5003;62766;62.622;17.912;2023-04-25T15:32:51;2;2;
44350;PMS5003;62766;62.622;17.912;2023-04-25T15:35:19;3;3;
44350;PMS5003;62766;62.622;17.912;2023-04-25T15:37:48;2;2;
44350;PMS5003;62766;62.622;17.912;2023-04-25T15:40:16;2;2;
44350;PMS5003;62766;62.622;17.912;2023-04-25T15:42:45;3;2;
44350;PMS5003;62766;62.622;17.912;2023-04-25T15:45:15;5;5;
44350;PMS5003;62766;62.622;17.912;2023-04-25T15:47:43;3;3;
44350;PMS5003;62766;62.622;17.912;2023-04-25T15:50:12;2;2;
44350;PMS5003;62766;62.622;17.912;2023-04-25T15:52:42;2;2;
44350;PMS5003;62766;62.622;17.912;2023-04-25T15:55:10;2;2;
44350;PMS5003;62766;62.622;17.912;2023-04-25T15:57:38;3;3;
44350;PMS5003;62766;62.622;17.912;2023-04-25T16:03:19;8;6;
44350;PMS5003;62766;62.622;17.912;2023-04-25T16:05:48;3;3;
44350;PMS5003;62766;62.622;17.912;2023-04-25T16:08:16;2;2;
44350;PMS5003;62766;62.622;17.912;2023-04-25T16:10:44;3;3;
44350;PMS5003;62766;62.622;17.912;2023-04-25T16:13:13;3;3;
44350;PMS5003;62766;62.622;17.912;2023-04-25T16:15:41;3;3;
44350;PMS5003;62766;62.622;17.912;2023-04-25T16:18:10;3;3;
44350;PMS5003;62766;62.622;17.912;2023-04-25T16:20:38;4;4;
44350;PMS5003;62766;62.622;17.912;2023-04-25T16:23:07;3;3;
44350;PMS5003;62766;62.622;17.912;2023-04-25T16:25:35;3;3;
44350;PMS5003;62766;62.622;17.912;2023-04-25T16:28:05;3;3;
44350;PMS5003;62766;62.622;17.912;2023-04-25T16:30:34;3;3;
44350;PMS5003;62766;62.622;17.912;2023-04-25T16:33:02;3;3;
44350;PMS5003;62766;62.622;17.912;2023-04-25T16:35:31;4;4;
44350;PMS5003;62766;62.622;17.912;2023-04-25T16:37:59;3;3;
44350;PMS5003;62766;62.622;17.912;2023-04-25T16:40:28;6;6;
44350;PMS5003;62766;62.622;17.912;2023-04-25T16:42:56;8;8;
44350;PMS5003;62766;62.622;17.912;2023-04-25T16:45:25;5;4;
44350;PMS5003;62766;62.622;17.912;2023-04-25T16:47:53;2;2;
44350;PMS5003;62766;62.622;17.912;2023-04-25T16:50:22;5;4;